createdAt,value
2023-01-18T00:00:18.488Z,1.60
2023-01-18T00:01:18.451Z,5.90
2023-01-18T00:02:18.428Z,7.90
2023-01-18T00:03:18.448Z,1.80
2023-01-18T00:04:18.404Z,4.90
2023-01-18T00:05:18.383Z,3.10
2023-01-18T00:06:18.367Z,4.90
2023-01-18T00:07:18.351Z,10.70
2023-01-18T00:08:18.365Z,1.40
2023-01-18T00:09:18.352Z,2.40
2023-01-18T00:10:18.361Z,3.00
2023-01-18T00:11:18.350Z,3.50
2023-01-18T00:12:18.318Z,3.50
2023-01-18T00:13:18.288Z,6.30
2023-01-18T00:14:18.303Z,6.50
2023-01-18T00:15:18.282Z,3.10
2023-01-18T00:16:18.341Z,1.50
2023-01-18T00:17:18.261Z,3.70
2023-01-18T00:18:18.254Z,1.50
2023-01-18T00:19:18.271Z,2.40
2023-01-18T00:20:18.234Z,4.70
2023-01-18T00:21:18.276Z,4.30
2023-01-18T00:22:18.202Z,3.00
2023-01-18T00:23:18.199Z,1.70
2023-01-18T00:24:18.179Z,2.70
2023-01-18T00:25:18.182Z,2.30
2023-01-18T00:26:18.155Z,3.30
2023-01-18T00:27:18.150Z,3.60
2023-01-18T00:28:18.121Z,4.60
2023-01-18T00:29:18.142Z,1.90
2023-01-18T00:30:18.141Z,2.70
2023-01-18T00:31:18.150Z,2.50
2023-01-18T00:32:18.079Z,2.70
2023-01-18T00:33:18.064Z,5.00
2023-01-18T00:34:18.075Z,3.10
2023-01-18T00:35:18.076Z,2.00
2023-01-18T00:36:18.067Z,5.20
2023-01-18T00:37:18.048Z,3.30
2023-01-18T00:38:18.007Z,4.40
2023-01-18T00:39:18.009Z,1.60
2023-01-18T00:40:18.008Z,5.70
2023-01-18T00:41:17.989Z,3.60
2023-01-18T00:42:18.013Z,4.60
2023-01-18T00:43:17.972Z,1.80
2023-01-18T00:44:17.956Z,2.30
2023-01-18T00:45:17.936Z,3.70
2023-01-18T00:46:17.950Z,2.90
2023-01-18T00:47:17.939Z,1.30
2023-01-18T00:48:17.904Z,1.60
2023-01-18T00:49:17.906Z,2.40
2023-01-18T00:50:17.895Z,3.80
2023-01-18T00:51:17.918Z,2.90
2023-01-18T00:52:17.868Z,3.50
2023-01-18T00:53:17.849Z,1.70
2023-01-18T00:54:17.850Z,2.30
2023-01-18T00:55:17.822Z,2.60
2023-01-18T00:56:17.837Z,2.00
2023-01-18T00:57:17.812Z,3.90
2023-01-18T00:58:17.804Z,1.70
2023-01-18T00:59:17.777Z,5.70
2023-01-18T01:00:17.780Z,2.60
2023-01-18T01:01:17.921Z,1.70
2023-01-18T01:02:17.826Z,1.90
2023-01-18T01:03:17.736Z,1.70
2023-01-18T01:04:17.755Z,1.00
2023-01-18T01:05:17.722Z,1.40
2023-01-18T01:06:17.699Z,1.70
2023-01-18T01:07:17.718Z,4.00
2023-01-18T01:08:17.727Z,2.50
2023-01-18T01:09:17.686Z,2.50
2023-01-18T01:10:17.670Z,2.00
2023-01-18T01:11:17.675Z,2.00
2023-01-18T01:12:17.650Z,3.20
2023-01-18T01:13:17.627Z,4.80
2023-01-18T01:14:17.645Z,2.40
2023-01-18T01:15:17.608Z,2.10
2023-01-18T01:16:17.631Z,2.10
2023-01-18T01:17:17.580Z,2.00
2023-01-18T01:18:17.576Z,1.60
2023-01-18T01:19:17.568Z,3.60
2023-01-18T01:20:17.573Z,8.90
2023-01-18T01:21:17.531Z,3.00
2023-01-18T01:22:17.534Z,2.40
2023-01-18T01:23:17.599Z,2.10
2023-01-18T01:24:17.507Z,2.50
2023-01-18T01:25:17.488Z,3.60
2023-01-18T01:26:17.494Z,1.50
2023-01-18T01:27:17.501Z,2.50
2023-01-18T01:28:17.470Z,2.70
2023-01-18T01:29:17.444Z,2.90
2023-01-18T01:30:17.430Z,1.70
2023-01-18T01:31:17.454Z,2.30
2023-01-18T01:32:17.412Z,3.00
2023-01-18T01:33:17.438Z,1.60
2023-01-18T01:34:17.402Z,2.20
2023-01-18T01:35:17.389Z,3.80
2023-01-18T01:36:17.363Z,3.90
2023-01-18T01:37:17.366Z,2.60
2023-01-18T01:38:17.405Z,2.40
2023-01-18T01:39:17.358Z,3.40
2023-01-18T01:40:17.347Z,1.70
2023-01-18T01:41:17.319Z,3.20
2023-01-18T01:42:17.307Z,3.20
2023-01-18T01:43:17.290Z,2.60
2023-01-18T01:44:17.346Z,2.30
2023-01-18T01:45:17.268Z,2.10
2023-01-18T01:46:17.261Z,1.40
2023-01-18T01:47:17.246Z,1.50
2023-01-18T01:48:17.260Z,2.40
2023-01-18T01:49:17.235Z,7.60
2023-01-18T01:50:17.227Z,3.40
2023-01-18T01:51:17.229Z,4.20
2023-01-18T01:52:17.193Z,2.20
2023-01-18T01:53:17.205Z,2.30
2023-01-18T01:54:17.174Z,2.30
2023-01-18T01:55:17.211Z,7.60
2023-01-18T01:56:17.163Z,1.80
2023-01-18T01:57:17.153Z,3.30
2023-01-18T01:58:17.156Z,5.50
2023-01-18T01:59:17.110Z,4.60
2023-01-18T02:00:17.095Z,6.00
2023-01-18T02:01:17.283Z,2.60
2023-01-18T02:02:17.099Z,4.90
2023-01-18T02:03:17.072Z,1.90
2023-01-18T02:04:17.075Z,5.00
2023-01-18T02:05:17.047Z,3.90
2023-01-18T02:06:17.037Z,5.60
2023-01-18T02:07:17.056Z,2.60
2023-01-18T02:08:17.019Z,3.40
2023-01-18T02:09:17.022Z,1.90
2023-01-18T02:10:16.998Z,3.80
2023-01-18T02:11:17.027Z,2.10
2023-01-18T02:12:16.997Z,15.50
2023-01-18T02:13:16.970Z,1.50
2023-01-18T02:14:16.956Z,2.30
2023-01-18T02:15:19.174Z,3.50
2023-01-18T02:16:17.059Z,3.10
2023-01-18T02:17:16.911Z,1.60
2023-01-18T02:18:16.896Z,4.10
2023-01-18T02:19:16.911Z,10.20
2023-01-18T02:20:16.900Z,3.50
2023-01-18T02:21:16.871Z,3.30
2023-01-18T02:22:16.861Z,1.80
2023-01-18T02:23:16.894Z,1.50
2023-01-18T02:24:16.827Z,5.10
2023-01-18T02:25:16.839Z,1.90
2023-01-18T02:26:16.816Z,2.70
2023-01-18T02:27:16.845Z,1.50
2023-01-18T02:28:16.802Z,2.20
2023-01-18T02:29:16.808Z,1.50
2023-01-18T02:30:16.777Z,1.40
2023-01-18T02:31:16.757Z,7.00
2023-01-18T02:32:16.749Z,0.40
2023-01-18T02:33:16.753Z,2.50
2023-01-18T02:34:16.724Z,1.30
2023-01-18T02:35:16.735Z,3.80
2023-01-18T02:36:16.699Z,1.70
2023-01-18T02:37:16.687Z,2.10
2023-01-18T02:38:16.677Z,1.80
2023-01-18T02:39:16.679Z,1.90
2023-01-18T02:40:16.672Z,1.50
2023-01-18T02:41:16.663Z,4.00
2023-01-18T02:42:16.648Z,1.70
2023-01-18T02:43:16.665Z,3.20
2023-01-18T02:44:16.619Z,2.30
2023-01-18T02:45:16.614Z,1.70
2023-01-18T02:46:16.644Z,2.00
2023-01-18T02:47:16.592Z,2.10
2023-01-18T02:48:16.571Z,2.90
2023-01-18T02:49:16.555Z,7.60
2023-01-18T02:50:16.582Z,2.40
2023-01-18T02:51:16.550Z,1.90
2023-01-18T02:52:16.544Z,1.90
2023-01-18T02:53:16.537Z,2.70
2023-01-18T02:54:16.506Z,2.60
2023-01-18T02:55:16.498Z,2.00
2023-01-18T02:56:16.493Z,6.50
2023-01-18T02:57:16.499Z,2.50
2023-01-18T02:58:16.464Z,2.70
2023-01-18T02:59:16.469Z,2.70
2023-01-18T03:00:16.449Z,3.10
2023-01-18T03:01:16.642Z,1.60
2023-01-18T03:02:16.483Z,2.50
2023-01-18T03:03:16.424Z,2.60
2023-01-18T03:04:16.391Z,6.20
2023-01-18T03:05:16.385Z,2.50
2023-01-18T03:06:16.390Z,2.20
2023-01-18T03:07:16.381Z,4.00
2023-01-18T03:08:16.359Z,3.00
2023-01-18T03:09:16.353Z,1.40
2023-01-18T03:10:16.335Z,5.20
2023-01-18T03:11:16.319Z,4.40
2023-01-18T03:12:16.314Z,7.00
2023-01-18T03:13:16.309Z,5.80
2023-01-18T03:14:16.296Z,4.00
2023-01-18T03:15:16.305Z,1.70
2023-01-18T03:16:16.250Z,2.00
2023-01-18T03:17:16.269Z,1.60
2023-01-18T03:18:16.231Z,1.80
2023-01-18T03:19:16.242Z,3.30
2023-01-18T03:20:16.230Z,4.20
2023-01-18T03:21:16.228Z,2.20
2023-01-18T03:22:16.189Z,1.80
2023-01-18T03:23:16.202Z,3.40
2023-01-18T03:24:16.175Z,1.40
2023-01-18T03:25:16.175Z,2.40
2023-01-18T03:26:16.159Z,2.80
2023-01-18T03:27:16.159Z,2.10
2023-01-18T03:28:16.157Z,3.80
2023-01-18T03:29:16.117Z,2.20
2023-01-18T03:30:16.110Z,5.60
2023-01-18T03:31:16.230Z,4.70
2023-01-18T03:32:16.091Z,1.50
2023-01-18T03:33:16.062Z,3.60
2023-01-18T03:34:16.060Z,3.80
2023-01-18T03:35:16.077Z,3.30
2023-01-18T03:36:16.042Z,14.30
2023-01-18T03:37:16.046Z,2.60
2023-01-18T03:38:16.037Z,2.70
2023-01-18T03:39:15.999Z,1.90
2023-01-18T03:40:15.998Z,2.40
2023-01-18T03:41:15.996Z,5.30
2023-01-18T03:42:15.994Z,4.90
2023-01-18T03:43:15.983Z,3.40
2023-01-18T03:44:15.950Z,1.80
2023-01-18T03:45:15.947Z,4.00
2023-01-18T03:46:15.967Z,2.10
2023-01-18T03:47:15.948Z,3.90
2023-01-18T03:48:15.918Z,1.50
2023-01-18T03:49:15.896Z,3.60
2023-01-18T03:50:15.905Z,4.40
2023-01-18T03:51:15.917Z,2.40
2023-01-18T03:52:15.888Z,3.10
2023-01-18T03:53:15.845Z,3.10
2023-01-18T03:54:15.840Z,3.40
2023-01-18T03:55:15.841Z,1.60
2023-01-18T03:56:16.032Z,3.80
2023-01-18T03:57:15.801Z,1.70
2023-01-18T03:58:15.787Z,2.70
2023-01-18T03:59:15.786Z,2.90
2023-01-18T04:00:15.800Z,4.90
2023-01-18T04:01:15.957Z,5.20
2023-01-18T04:02:15.757Z,1.30
2023-01-18T04:03:15.838Z,3.50
2023-01-18T04:04:15.733Z,13.00
2023-01-18T04:05:15.731Z,3.10
2023-01-18T04:06:15.753Z,2.30
2023-01-18T04:07:15.704Z,13.60
2023-01-18T04:08:15.681Z,2.50
2023-01-18T04:09:15.672Z,3.40
2023-01-18T04:10:15.686Z,1.90
2023-01-18T04:11:15.660Z,3.80
2023-01-18T04:12:15.654Z,4.10
2023-01-18T04:13:15.633Z,7.20
2023-01-18T04:14:15.626Z,1.80
2023-01-18T04:15:15.600Z,1.70
2023-01-18T04:16:15.684Z,1.70
2023-01-18T04:17:15.586Z,3.10
2023-01-18T04:18:15.578Z,2.40
2023-01-18T04:19:15.594Z,3.00
2023-01-18T04:20:15.558Z,3.60
2023-01-18T04:21:15.544Z,6.10
2023-01-18T04:22:15.527Z,6.00
2023-01-18T04:23:15.534Z,1.60
2023-01-18T04:24:15.512Z,4.30
2023-01-18T04:25:15.494Z,2.30
2023-01-18T04:26:15.483Z,5.30
2023-01-18T04:27:15.469Z,2.40
2023-01-18T04:28:15.481Z,4.10
2023-01-18T04:29:15.487Z,2.20
2023-01-18T04:30:15.443Z,4.10
2023-01-18T04:31:15.473Z,3.30
2023-01-18T04:32:15.430Z,1.30
2023-01-18T04:33:15.415Z,4.10
2023-01-18T04:34:15.438Z,3.50
2023-01-18T04:35:15.430Z,2.80
2023-01-18T04:36:15.384Z,2.70
2023-01-18T04:37:15.354Z,5.00
2023-01-18T04:38:15.357Z,5.20
2023-01-18T04:39:15.336Z,3.00
2023-01-18T04:40:15.330Z,5.30
2023-01-18T04:41:15.313Z,1.30
2023-01-18T04:42:15.301Z,1.40
2023-01-18T04:43:15.294Z,3.50
2023-01-18T04:44:15.307Z,4.00
2023-01-18T04:45:15.286Z,1.60
2023-01-18T04:46:15.427Z,2.00
2023-01-18T04:47:15.242Z,2.60
2023-01-18T04:48:15.266Z,1.70
2023-01-18T04:49:15.268Z,4.70
2023-01-18T04:50:15.221Z,3.90
2023-01-18T04:51:15.269Z,2.10
2023-01-18T04:52:15.187Z,2.30
2023-01-18T04:53:15.188Z,1.90
2023-01-18T04:54:15.184Z,1.40
2023-01-18T04:55:15.170Z,3.50
2023-01-18T04:56:15.146Z,4.10
2023-01-18T04:57:15.149Z,1.10
2023-01-18T04:58:15.155Z,8.10
2023-01-18T04:59:15.131Z,9.10
2023-01-18T05:00:15.131Z,1.80
2023-01-18T05:01:15.279Z,2.60
2023-01-18T05:02:15.372Z,2.50
2023-01-18T05:03:15.076Z,2.00
2023-01-18T05:04:15.072Z,3.60
2023-01-18T05:05:15.101Z,2.90
2023-01-18T05:06:15.035Z,3.10
2023-01-18T05:07:15.069Z,6.10
2023-01-18T05:08:15.032Z,3.80
2023-01-18T05:09:15.004Z,3.10
2023-01-18T05:10:14.988Z,5.60
2023-01-18T05:11:15.005Z,2.90
2023-01-18T05:12:14.989Z,1.50
2023-01-18T05:13:14.972Z,3.00
2023-01-18T05:14:14.960Z,2.90
2023-01-18T05:15:14.937Z,3.50
2023-01-18T05:16:15.001Z,1.70
2023-01-18T05:17:14.953Z,2.50
2023-01-18T05:18:14.926Z,1.50
2023-01-18T05:19:14.888Z,3.50
2023-01-18T05:20:14.891Z,1.70
2023-01-18T05:21:14.885Z,6.40
2023-01-18T05:22:14.883Z,2.40
2023-01-18T05:23:14.897Z,3.70
2023-01-18T05:24:14.833Z,1.70
2023-01-18T05:25:14.839Z,2.30
2023-01-18T05:26:14.838Z,3.40
2023-01-18T05:27:14.812Z,2.20
2023-01-18T05:28:14.815Z,10.10
2023-01-18T05:29:14.780Z,5.50
2023-01-18T05:30:14.775Z,3.80
2023-01-18T05:31:14.872Z,2.50
2023-01-18T05:32:14.740Z,3.60
2023-01-18T05:33:14.754Z,3.60
2023-01-18T05:34:14.761Z,1.80
2023-01-18T05:35:14.717Z,2.80
2023-01-18T05:36:14.714Z,2.40
2023-01-18T05:37:14.749Z,2.40
2023-01-18T05:38:14.704Z,3.90
2023-01-18T05:39:14.732Z,2.50
2023-01-18T05:40:14.710Z,3.00
2023-01-18T05:41:14.656Z,3.60
2023-01-18T05:42:14.683Z,2.20
2023-01-18T05:43:14.621Z,3.00
2023-01-18T05:44:14.641Z,2.30
2023-01-18T05:45:14.600Z,2.80
2023-01-18T05:46:14.616Z,5.10
2023-01-18T05:47:14.588Z,2.40
2023-01-18T05:48:14.591Z,4.00
2023-01-18T05:49:14.577Z,5.00
2023-01-18T05:50:14.563Z,2.90
2023-01-18T05:51:14.551Z,4.50
2023-01-18T05:52:14.562Z,9.80
2023-01-18T05:53:14.560Z,2.40
2023-01-18T05:54:14.525Z,5.90
2023-01-18T05:55:14.531Z,1.60
2023-01-18T05:56:14.491Z,4.50
2023-01-18T05:57:14.502Z,4.10
2023-01-18T05:58:14.480Z,4.20
2023-01-18T05:59:14.464Z,3.80
2023-01-18T06:00:14.450Z,2.90
2023-01-18T06:01:14.536Z,2.40
2023-01-18T06:02:14.544Z,6.00
2023-01-18T06:03:14.419Z,2.60
2023-01-18T06:04:14.426Z,2.60
2023-01-18T06:05:14.427Z,1.40
2023-01-18T06:06:14.382Z,4.10
2023-01-18T06:07:14.377Z,2.30
2023-01-18T06:08:14.368Z,5.80
2023-01-18T06:09:14.349Z,3.80
2023-01-18T06:10:14.362Z,3.90
2023-01-18T06:11:14.393Z,2.40
2023-01-18T06:12:14.319Z,15.20
2023-01-18T06:13:14.317Z,2.10
2023-01-18T06:14:14.318Z,4.30
2023-01-18T06:15:14.367Z,7.50
2023-01-18T06:16:14.305Z,2.00
2023-01-18T06:17:14.297Z,3.10
2023-01-18T06:18:14.239Z,3.20
2023-01-18T06:19:14.327Z,3.60
2023-01-18T06:20:14.270Z,5.60
2023-01-18T06:21:14.239Z,2.80
2023-01-18T06:22:14.215Z,2.20
2023-01-18T06:23:14.210Z,3.50
2023-01-18T06:24:14.219Z,4.30
2023-01-18T06:25:14.182Z,3.10
2023-01-18T06:26:14.161Z,5.40
2023-01-18T06:27:14.177Z,3.10
2023-01-18T06:28:14.133Z,6.50
2023-01-18T06:29:14.158Z,3.90
2023-01-18T06:30:14.128Z,6.70
2023-01-18T06:31:14.099Z,9.70
2023-01-18T06:32:14.103Z,7.60
2023-01-18T06:33:14.075Z,4.00
2023-01-18T06:34:14.078Z,3.20
2023-01-18T06:35:14.097Z,2.50
2023-01-18T06:36:14.052Z,6.20
2023-01-18T06:37:14.055Z,2.50
2023-01-18T06:38:14.052Z,3.90
2023-01-18T06:39:14.038Z,3.70
2023-01-18T06:40:14.027Z,4.30
2023-01-18T06:41:13.998Z,3.50
2023-01-18T06:42:13.992Z,7.50
2023-01-18T06:43:14.350Z,7.20
2023-01-18T06:44:13.976Z,4.60
2023-01-18T06:45:13.962Z,7.20
2023-01-18T06:46:13.983Z,4.80
2023-01-18T06:47:13.986Z,4.00
2023-01-18T06:48:13.967Z,6.80
2023-01-18T06:49:13.931Z,1.90
2023-01-18T06:50:13.890Z,7.10
2023-01-18T06:51:13.889Z,6.20
2023-01-18T06:52:13.951Z,5.40
2023-01-18T06:53:13.880Z,4.40
2023-01-18T06:54:13.877Z,6.10
2023-01-18T06:55:13.868Z,4.30
2023-01-18T06:56:13.841Z,5.90
2023-01-18T06:57:13.843Z,7.60
2023-01-18T06:58:13.829Z,3.70
2023-01-18T06:59:13.828Z,2.90
2023-01-18T07:00:13.822Z,3.20
2023-01-18T07:01:14.026Z,4.70
2023-01-18T07:02:13.900Z,3.80
2023-01-18T07:03:13.761Z,3.10
2023-01-18T07:04:13.829Z,5.80
2023-01-18T07:05:13.909Z,4.80
2023-01-18T07:06:13.751Z,3.30
2023-01-18T07:07:13.754Z,3.70
2023-01-18T07:08:13.709Z,3.90
2023-01-18T07:09:13.676Z,4.30
2023-01-18T07:10:16.263Z,8.50
2023-01-18T07:11:13.665Z,5.40
2023-01-18T07:12:13.690Z,5.20
2023-01-18T07:13:13.656Z,6.10
2023-01-18T07:14:13.635Z,11.70
2023-01-18T07:15:21.556Z,4.10
2023-01-18T07:16:14.628Z,3.60
2023-01-18T07:17:13.611Z,4.10
2023-01-18T07:18:13.601Z,2.80
2023-01-18T07:19:13.591Z,9.90
2023-01-18T07:20:13.564Z,4.70
2023-01-18T07:21:15.206Z,2.70
2023-01-18T07:22:13.545Z,5.60
2023-01-18T07:23:13.555Z,7.80
2023-01-18T07:24:13.542Z,6.00
2023-01-18T07:25:13.804Z,9.20
2023-01-18T07:26:13.525Z,2.90
2023-01-18T07:27:13.496Z,5.10
2023-01-18T07:28:13.492Z,3.30
2023-01-18T07:29:13.478Z,6.60
2023-01-18T07:30:13.482Z,2.50
2023-01-18T07:31:13.512Z,4.10
2023-01-18T07:32:13.452Z,8.00
2023-01-18T07:33:13.488Z,4.70
2023-01-18T07:34:13.418Z,3.90
2023-01-18T07:35:13.414Z,4.40
2023-01-18T07:36:13.396Z,6.20
2023-01-18T07:37:13.397Z,2.80
2023-01-18T07:38:13.362Z,4.20
2023-01-18T07:39:13.358Z,7.90
2023-01-18T07:40:13.356Z,4.30
2023-01-18T07:41:13.329Z,7.40
2023-01-18T07:42:13.326Z,16.80
2023-01-18T07:43:13.334Z,4.90
2023-01-18T07:44:13.288Z,5.20
2023-01-18T07:45:13.290Z,4.90
2023-01-18T07:46:13.321Z,5.70
2023-01-18T07:47:13.297Z,7.20
2023-01-18T07:48:13.261Z,4.00
2023-01-18T07:49:13.265Z,4.10
2023-01-18T07:50:13.246Z,7.30
2023-01-18T07:51:13.257Z,6.30
2023-01-18T07:52:13.224Z,6.20
2023-01-18T07:53:13.185Z,4.90
2023-01-18T07:54:13.207Z,3.70
2023-01-18T07:55:13.183Z,4.00
2023-01-18T07:56:13.175Z,2.30
2023-01-18T07:57:13.172Z,4.80
2023-01-18T07:58:13.156Z,4.30
2023-01-18T07:59:13.153Z,5.80
2023-01-18T08:00:13.140Z,6.80
2023-01-18T08:01:13.344Z,2.80
2023-01-18T08:02:13.180Z,6.10
2023-01-18T08:03:13.158Z,5.10
2023-01-18T08:04:13.117Z,12.20
2023-01-18T08:05:13.184Z,5.50
2023-01-18T08:06:13.056Z,3.60
2023-01-18T08:07:13.031Z,3.70
2023-01-18T08:08:13.029Z,3.70
2023-01-18T08:09:13.066Z,4.50
2023-01-18T08:10:13.015Z,3.20
2023-01-18T08:11:13.004Z,9.00
2023-01-18T08:12:12.974Z,5.20
2023-01-18T08:13:13.003Z,8.50
2023-01-18T08:14:12.999Z,6.70
2023-01-18T08:15:12.969Z,6.50
2023-01-18T08:16:13.039Z,5.50
2023-01-18T08:17:13.040Z,4.30
2023-01-18T08:18:12.945Z,4.80
2023-01-18T08:19:13.017Z,5.10
2023-01-18T08:20:12.907Z,3.00
2023-01-18T08:21:12.880Z,8.60
2023-01-18T08:22:12.864Z,5.30
2023-01-18T08:23:12.869Z,6.60
2023-01-18T08:24:12.848Z,5.30
2023-01-18T08:25:12.861Z,3.30
2023-01-18T08:26:12.906Z,5.80
2023-01-18T08:27:12.854Z,9.40
2023-01-18T08:28:12.811Z,3.10
2023-01-18T08:29:12.814Z,4.20
2023-01-18T08:30:12.793Z,3.70
2023-01-18T08:31:12.868Z,4.70
2023-01-18T08:32:12.795Z,7.70
2023-01-18T08:33:12.765Z,5.20
2023-01-18T08:34:12.762Z,4.40
2023-01-18T08:35:12.820Z,7.30
2023-01-18T08:36:12.790Z,5.20
2023-01-18T08:37:12.756Z,6.30
2023-01-18T08:38:12.727Z,11.80
2023-01-18T08:39:12.703Z,8.60
2023-01-18T08:40:12.761Z,4.20
2023-01-18T08:41:12.672Z,5.90
2023-01-18T08:42:12.718Z,5.50
2023-01-18T08:43:12.666Z,3.50
2023-01-18T08:44:12.647Z,6.60
2023-01-18T08:45:12.645Z,3.70
2023-01-18T08:46:12.655Z,4.20
2023-01-18T08:47:12.615Z,2.60
2023-01-18T08:48:12.637Z,6.10
2023-01-18T08:49:12.644Z,5.00
2023-01-18T08:50:12.621Z,8.70
2023-01-18T08:51:12.605Z,4.20
2023-01-18T08:52:12.571Z,6.00
2023-01-18T08:53:12.633Z,5.40
2023-01-18T08:54:12.551Z,5.00
2023-01-18T08:55:12.562Z,5.00
2023-01-18T08:56:12.520Z,7.00
2023-01-18T08:57:12.480Z,4.70
2023-01-18T08:58:13.518Z,6.30
2023-01-18T08:59:13.444Z,3.00
2023-01-18T09:00:12.494Z,4.90
2023-01-18T09:01:12.541Z,5.30
2023-01-18T09:02:12.521Z,7.50
2023-01-18T09:03:12.477Z,5.50
2023-01-18T09:04:12.412Z,3.80
2023-01-18T09:05:12.400Z,6.30
2023-01-18T09:06:13.204Z,6.00
2023-01-18T09:07:12.618Z,7.10
2023-01-18T09:08:12.402Z,4.00
2023-01-18T09:09:12.349Z,6.00
2023-01-18T09:10:12.335Z,6.20
2023-01-18T09:11:12.332Z,11.60
2023-01-18T09:12:12.338Z,5.40
2023-01-18T09:13:12.314Z,4.60
2023-01-18T09:14:12.324Z,9.30
2023-01-18T09:15:12.303Z,7.40
2023-01-18T09:16:12.366Z,7.50
2023-01-18T09:17:12.282Z,5.60
2023-01-18T09:18:12.354Z,8.30
2023-01-18T09:19:12.257Z,7.50
2023-01-18T09:20:12.248Z,9.40
2023-01-18T09:21:12.255Z,11.50
2023-01-18T09:22:12.218Z,8.10
2023-01-18T09:23:12.264Z,8.90
2023-01-18T09:24:12.221Z,12.40
2023-01-18T09:25:12.198Z,6.90
2023-01-18T09:26:12.189Z,7.90
2023-01-18T09:27:12.160Z,7.20
2023-01-18T09:28:12.154Z,12.60
2023-01-18T09:29:12.150Z,10.70
2023-01-18T09:30:12.169Z,10.50
2023-01-18T09:31:12.153Z,9.40
2023-01-18T09:32:12.099Z,6.80
2023-01-18T09:33:12.084Z,9.70
2023-01-18T09:34:20.107Z,11.70
2023-01-18T09:35:13.094Z,10.70
2023-01-18T09:36:12.064Z,8.50
2023-01-18T09:37:12.046Z,9.10
2023-01-18T09:38:12.070Z,13.00
2023-01-18T09:39:12.062Z,10.30
2023-01-18T09:40:12.109Z,7.60
2023-01-18T09:41:14.107Z,7.60
2023-01-18T09:42:11.998Z,11.40
2023-01-18T09:43:11.976Z,12.90
2023-01-18T09:44:11.997Z,10.20
2023-01-18T09:45:11.972Z,8.40
2023-01-18T09:46:12.022Z,7.20
2023-01-18T09:47:11.961Z,10.00
2023-01-18T09:48:11.949Z,7.50
2023-01-18T09:49:11.971Z,7.10
2023-01-18T09:50:12.012Z,10.70
2023-01-18T09:51:11.885Z,10.50
2023-01-18T09:52:11.913Z,10.50
2023-01-18T09:53:11.935Z,7.40
2023-01-18T09:54:11.852Z,12.50
2023-01-18T09:55:11.876Z,8.60
2023-01-18T09:56:11.843Z,12.30
2023-01-18T09:57:11.807Z,11.80
2023-01-18T09:58:11.887Z,7.30
2023-01-18T09:59:11.806Z,11.10
2023-01-18T10:00:11.797Z,7.30
2023-01-18T10:01:11.980Z,8.20
2023-01-18T10:02:11.838Z,4.80
2023-01-18T10:03:11.772Z,11.60
2023-01-18T10:04:11.766Z,7.80
2023-01-18T10:05:11.729Z,16.10
2023-01-18T10:06:11.722Z,6.70
2023-01-18T10:07:11.735Z,10.30
2023-01-18T10:08:11.853Z,8.90
2023-01-18T10:09:11.701Z,7.70
2023-01-18T10:10:11.681Z,9.10
2023-01-18T10:11:11.685Z,8.60
2023-01-18T10:12:11.639Z,11.70
2023-01-18T10:13:11.675Z,12.40
2023-01-18T10:14:11.648Z,11.70
2023-01-18T10:15:11.625Z,16.50
2023-01-18T10:16:11.624Z,9.70
2023-01-18T10:17:11.615Z,8.60
2023-01-18T10:18:11.612Z,9.30
2023-01-18T10:19:11.614Z,7.30
2023-01-18T10:20:11.574Z,14.80
2023-01-18T10:21:11.577Z,10.10
2023-01-18T10:22:11.566Z,9.70
2023-01-18T10:23:11.555Z,11.10
2023-01-18T10:24:11.539Z,9.00
2023-01-18T10:25:11.558Z,5.50
2023-01-18T10:26:11.585Z,8.70
2023-01-18T10:27:11.538Z,10.00
2023-01-18T10:28:11.498Z,8.80
2023-01-18T10:29:11.489Z,6.20
2023-01-18T10:30:11.479Z,11.80
2023-01-18T10:31:11.509Z,7.90
2023-01-18T10:32:11.432Z,6.50
2023-01-18T10:33:11.451Z,6.90
2023-01-18T10:34:11.405Z,6.80
2023-01-18T10:35:11.427Z,6.00
2023-01-18T10:36:11.821Z,9.30
2023-01-18T10:37:11.385Z,9.80
2023-01-18T10:38:11.354Z,11.60
2023-01-18T10:39:11.362Z,10.80
2023-01-18T10:40:11.363Z,10.50
2023-01-18T10:41:11.343Z,7.40
2023-01-18T10:42:11.365Z,9.90
2023-01-18T10:43:11.322Z,8.50
2023-01-18T10:44:11.291Z,8.70
2023-01-18T10:45:11.272Z,9.90
2023-01-18T10:46:11.343Z,10.00
2023-01-18T10:47:11.292Z,11.00
2023-01-18T10:48:11.267Z,10.50
2023-01-18T10:49:11.233Z,8.40
2023-01-18T10:50:11.420Z,11.60
2023-01-18T10:51:11.236Z,11.00
2023-01-18T10:52:11.220Z,11.90
2023-01-18T10:53:11.197Z,12.10
2023-01-18T10:54:11.214Z,10.10
2023-01-18T10:55:11.330Z,8.90
2023-01-18T10:56:11.161Z,13.40
2023-01-18T10:57:11.142Z,9.00
2023-01-18T10:58:11.197Z,11.90
2023-01-18T10:59:11.186Z,8.80
2023-01-18T11:00:11.132Z,9.00
2023-01-18T11:01:11.352Z,8.90
2023-01-18T11:02:11.291Z,9.50
2023-01-18T11:03:11.096Z,9.90
2023-01-18T11:04:11.069Z,12.40
2023-01-18T11:05:11.114Z,9.50
2023-01-18T11:06:11.060Z,9.90
2023-01-18T11:07:11.124Z,9.70
2023-01-18T11:08:11.021Z,9.90
2023-01-18T11:09:11.048Z,10.90
2023-01-18T11:10:11.023Z,12.10
2023-01-18T11:11:11.051Z,8.60
2023-01-18T11:12:10.997Z,15.70
2023-01-18T11:13:10.991Z,11.80
2023-01-18T11:14:10.977Z,9.60
2023-01-18T11:15:10.976Z,11.00
2023-01-18T11:16:10.998Z,8.50
2023-01-18T11:17:10.954Z,12.50
2023-01-18T11:18:10.951Z,11.10
2023-01-18T11:19:10.907Z,11.10
2023-01-18T11:20:11.862Z,12.60
2023-01-18T11:21:10.875Z,11.30
2023-01-18T11:22:10.901Z,10.70
2023-01-18T11:23:10.901Z,10.60
2023-01-18T11:24:10.869Z,11.50
2023-01-18T11:25:10.877Z,9.60
2023-01-18T11:26:10.846Z,9.30
2023-01-18T11:27:10.819Z,10.30
2023-01-18T11:28:10.843Z,11.80
2023-01-18T11:29:10.818Z,11.30
2023-01-18T11:30:10.810Z,12.90
2023-01-18T11:31:10.808Z,9.60
2023-01-18T11:32:10.795Z,9.30
2023-01-18T11:33:10.764Z,9.10
2023-01-18T11:34:10.745Z,9.00
2023-01-18T11:35:12.797Z,8.30
2023-01-18T11:36:10.730Z,9.70
2023-01-18T11:37:10.971Z,13.40
2023-01-18T11:38:10.721Z,10.70
2023-01-18T11:39:10.734Z,11.30
2023-01-18T11:40:10.698Z,8.30
2023-01-18T11:41:10.662Z,11.10
2023-01-18T11:42:10.673Z,9.10
2023-01-18T11:43:10.655Z,15.10
2023-01-18T11:44:10.635Z,11.20
2023-01-18T11:45:10.634Z,9.00
2023-01-18T11:46:10.691Z,12.60
2023-01-18T11:47:10.705Z,8.90
2023-01-18T11:48:10.597Z,11.80
2023-01-18T11:49:10.562Z,10.60
2023-01-18T11:50:21.736Z,12.40
2023-01-18T11:51:11.563Z,7.80
2023-01-18T11:52:10.572Z,10.20
2023-01-18T11:53:10.582Z,12.80
2023-01-18T11:54:10.518Z,7.50
2023-01-18T11:55:10.510Z,12.30
2023-01-18T11:56:10.498Z,9.80
2023-01-18T11:57:10.486Z,8.10
2023-01-18T11:58:10.463Z,8.50
2023-01-18T11:59:10.492Z,8.40
2023-01-18T12:00:10.656Z,9.90
2023-01-18T12:01:10.526Z,10.00
2023-01-18T12:02:10.468Z,12.40
2023-01-18T12:03:10.472Z,7.30
2023-01-18T12:04:10.419Z,11.90
2023-01-18T12:05:10.536Z,11.60
2023-01-18T12:06:10.470Z,8.10
2023-01-18T12:07:10.388Z,9.40
2023-01-18T12:08:10.876Z,8.00
2023-01-18T12:09:10.358Z,9.60
2023-01-18T12:10:10.885Z,11.20
2023-01-18T12:11:10.377Z,10.30
2023-01-18T12:12:19.069Z,11.40
2023-01-18T12:13:11.303Z,9.60
2023-01-18T12:14:10.305Z,10.30
2023-01-18T12:15:10.272Z,8.60
2023-01-18T12:16:10.397Z,11.70
2023-01-18T12:17:10.309Z,8.90
2023-01-18T12:18:14.081Z,10.20
2023-01-18T12:19:10.415Z,8.60
2023-01-18T12:20:10.222Z,10.50
2023-01-18T12:21:10.395Z,7.30
2023-01-18T12:22:10.251Z,10.90
2023-01-18T12:23:10.196Z,7.70
2023-01-18T12:24:10.199Z,12.00
2023-01-18T12:25:10.196Z,9.10
2023-01-18T12:26:12.579Z,9.20
2023-01-18T12:27:10.158Z,8.60
2023-01-18T12:28:10.158Z,11.60
2023-01-18T12:29:10.129Z,10.70
2023-01-18T12:30:12.296Z,8.30
2023-01-18T12:31:10.161Z,8.90
2023-01-18T12:32:10.133Z,9.60
2023-01-18T12:33:10.095Z,10.50
2023-01-18T12:34:10.077Z,8.40
2023-01-18T12:35:22.976Z,12.20
2023-01-18T12:36:11.054Z,11.30
2023-01-18T12:37:10.062Z,7.30
2023-01-18T12:38:12.115Z,8.30
2023-01-18T12:39:10.012Z,8.80
2023-01-18T12:40:10.017Z,9.80
2023-01-18T12:41:10.006Z,9.10
2023-01-18T12:42:09.971Z,6.10
2023-01-18T12:43:10.025Z,9.00
2023-01-18T12:44:09.953Z,8.00
2023-01-18T12:45:09.956Z,6.20
2023-01-18T12:46:10.003Z,12.30
2023-01-18T12:47:09.948Z,6.30
2023-01-18T12:48:09.917Z,8.60
2023-01-18T12:49:10.434Z,5.80
2023-01-18T12:50:09.891Z,3.70
2023-01-18T12:51:09.971Z,3.90
2023-01-18T12:52:18.571Z,3.50
2023-01-18T12:53:10.877Z,1.80
2023-01-18T12:54:09.874Z,3.40
2023-01-18T12:55:09.835Z,4.90
2023-01-18T12:56:09.823Z,1.80
2023-01-18T12:57:09.835Z,2.50
2023-01-18T12:58:09.842Z,2.00
2023-01-18T12:59:09.813Z,1.70
2023-01-18T13:00:09.789Z,3.70
2023-01-18T13:01:09.921Z,1.70
2023-01-18T13:02:09.901Z,1.40
2023-01-18T13:03:09.738Z,2.10
2023-01-18T13:04:09.758Z,1.60
2023-01-18T13:05:09.743Z,2.20
2023-01-18T13:06:09.731Z,3.60
2023-01-18T13:07:09.734Z,3.10
2023-01-18T13:08:09.718Z,2.30
2023-01-18T13:09:09.699Z,1.70
2023-01-18T13:10:09.679Z,1.00
2023-01-18T13:11:09.879Z,1.10
2023-01-18T13:12:09.655Z,0.90
2023-01-18T13:13:09.672Z,1.90
2023-01-18T13:14:09.698Z,1.30